createdAt,value
2024-01-24T00:00:10.165Z,29.84
2024-01-24T00:02:38.670Z,29.73
2024-01-24T00:05:07.992Z,29.72
2024-01-24T00:07:36.204Z,29.72
2024-01-24T00:10:04.896Z,29.88
2024-01-24T00:12:34.614Z,29.97
2024-01-24T00:15:02.813Z,29.83
2024-01-24T00:17:30.990Z,29.72
2024-01-24T00:19:59.138Z,30.01
2024-01-24T00:22:27.265Z,29.95
2024-01-24T00:24:55.384Z,29.76
2024-01-24T00:27:23.669Z,29.84
2024-01-24T00:29:53.553Z,29.57
2024-01-24T00:32:21.755Z,29.81
2024-01-24T00:34:49.969Z,29.60
2024-01-24T00:37:18.197Z,29.78
2024-01-24T00:39:48.010Z,29.47
2024-01-24T00:42:16.167Z,29.61
2024-01-24T00:44:44.552Z,29.55
2024-01-24T00:47:14.077Z,29.66
2024-01-24T00:49:42.286Z,29.52
2024-01-24T00:52:10.457Z,29.85
2024-01-24T00:54:38.671Z,29.70
2024-01-24T00:57:07.022Z,29.43
2024-01-24T00:59:35.195Z,29.38
2024-01-24T01:02:03.931Z,29.70
2024-01-24T01:04:33.565Z,29.66
2024-01-24T01:07:01.815Z,29.41
2024-01-24T01:09:29.952Z,29.51
2024-01-24T01:11:58.183Z,29.74
2024-01-24T01:14:26.288Z,29.33
2024-01-24T01:16:54.777Z,29.29
2024-01-24T01:19:23.182Z,29.31
2024-01-24T01:21:53.111Z,29.53
2024-01-24T01:24:21.317Z,29.70
2024-01-24T01:26:49.413Z,29.57
2024-01-24T01:29:17.534Z,29.33
2024-01-24T01:31:45.698Z,29.26
2024-01-24T01:34:13.977Z,29.36
2024-01-24T01:36:42.147Z,29.41
2024-01-24T01:39:12.096Z,29.42
2024-01-24T01:41:40.285Z,29.37
2024-01-24T01:44:08.403Z,29.27
2024-01-24T01:46:37.392Z,29.32
2024-01-24T01:49:05.680Z,29.19
2024-01-24T01:51:33.932Z,29.53
2024-01-24T01:54:02.081Z,29.17
2024-01-24T01:56:31.621Z,29.25
2024-01-24T01:58:59.801Z,29.16
2024-01-24T02:01:27.990Z,29.21
2024-01-24T02:04:57.870Z,29.43
2024-01-24T02:07:26.139Z,29.21
2024-01-24T02:09:54.912Z,29.43
2024-01-24T02:12:25.401Z,29.14
2024-01-24T02:14:55.106Z,29.23
2024-01-24T02:17:23.272Z,29.04
2024-01-24T02:19:51.588Z,29.13
2024-01-24T02:22:20.089Z,29.17
2024-01-24T02:24:49.771Z,29.07
2024-01-24T02:27:18.006Z,29.42
2024-01-24T02:29:46.591Z,29.10
2024-01-24T02:32:14.694Z,29.51
2024-01-24T02:34:42.922Z,29.27
2024-01-24T02:37:11.285Z,29.02
2024-01-24T02:39:39.576Z,29.22
2024-01-24T02:42:09.797Z,29.46
2024-01-24T02:44:38.009Z,29.00
2024-01-24T02:47:06.324Z,29.41
2024-01-24T02:49:34.720Z,29.03
2024-01-24T02:52:03.402Z,29.02
2024-01-24T02:54:31.558Z,29.17
2024-01-24T02:56:59.691Z,29.32
2024-01-24T02:59:29.207Z,29.28
2024-01-24T03:01:57.380Z,29.36
2024-01-24T03:04:25.650Z,29.20
2024-01-24T03:06:56.502Z,29.12
2024-01-24T03:09:24.677Z,29.06
2024-01-24T03:11:53.062Z,28.96
2024-01-24T03:14:22.387Z,29.07
2024-01-24T03:16:51.883Z,29.41
2024-01-24T03:19:20.066Z,29.42
2024-01-24T03:21:48.954Z,29.31
2024-01-24T03:24:17.134Z,29.18
2024-01-24T03:26:45.332Z,29.15
2024-01-24T03:29:13.512Z,29.18
2024-01-24T03:31:44.325Z,29.29
2024-01-24T03:34:14.636Z,28.92
2024-01-24T03:36:43.017Z,29.10
2024-01-24T03:39:12.297Z,28.92
2024-01-24T03:41:40.637Z,28.93
2024-01-24T03:44:08.861Z,28.91
2024-01-24T03:46:37.040Z,28.95
2024-01-24T03:49:22.927Z,28.90
2024-01-24T03:51:51.229Z,29.10
2024-01-24T03:54:19.497Z,28.95
2024-01-24T03:56:47.632Z,29.14
2024-01-24T03:59:15.826Z,29.18
2024-01-24T04:01:44.136Z,28.98
2024-01-24T04:04:12.375Z,28.88
2024-01-24T04:06:42.190Z,29.19
2024-01-24T04:09:10.398Z,29.05
2024-01-24T04:11:39.825Z,28.85
2024-01-24T04:14:09.213Z,28.79
2024-01-24T04:16:40.727Z,29.14
2024-01-24T04:19:18.123Z,29.15
2024-01-24T04:21:47.745Z,28.89
2024-01-24T04:24:16.052Z,28.78
2024-01-24T04:26:44.527Z,28.82
2024-01-24T04:29:13.878Z,28.97
2024-01-24T04:31:43.363Z,28.97
2024-01-24T04:34:11.760Z,29.01
2024-01-24T04:36:40.041Z,28.88
2024-01-24T04:39:09.596Z,28.76
2024-01-24T04:41:40.800Z,28.78
2024-01-24T04:44:09.580Z,28.73
2024-01-24T04:46:37.691Z,28.73
2024-01-24T04:49:05.888Z,29.00
2024-01-24T04:51:34.334Z,28.76
2024-01-24T04:54:02.895Z,28.73
2024-01-24T04:56:32.537Z,28.71
2024-01-24T04:59:02.170Z,29.02
2024-01-24T05:01:30.744Z,28.77
2024-01-24T05:03:59.904Z,28.82
2024-01-24T05:06:28.376Z,28.92
2024-01-24T05:08:56.615Z,28.55
2024-01-24T05:11:24.840Z,28.67
2024-01-24T05:13:55.196Z,28.78
2024-01-24T05:16:23.401Z,29.00
2024-01-24T05:18:55.871Z,28.90
2024-01-24T05:21:24.170Z,28.90
2024-01-24T05:23:53.347Z,28.64
2024-01-24T05:26:21.564Z,28.88
2024-01-24T05:28:49.689Z,28.87
2024-01-24T05:31:19.958Z,28.60
2024-01-24T05:34:00.303Z,28.65
2024-01-24T05:36:28.827Z,28.67
2024-01-24T05:38:57.012Z,28.55
2024-01-24T05:41:24.197Z,28.58
2024-01-24T05:43:52.340Z,28.53
2024-01-24T05:46:21.909Z,28.63
2024-01-24T05:48:50.248Z,28.98
2024-01-24T05:51:18.614Z,28.95
2024-01-24T05:53:46.755Z,28.94
2024-01-24T05:56:14.847Z,28.57
2024-01-24T05:58:42.995Z,28.81
2024-01-24T06:01:11.534Z,28.97
2024-01-24T06:03:42.034Z,28.60
2024-01-24T06:06:10.456Z,28.64
2024-01-24T06:08:38.760Z,28.60
2024-01-24T06:11:06.999Z,28.94
2024-01-24T06:13:35.864Z,29.05
2024-01-24T06:16:04.158Z,28.91
2024-01-24T06:18:32.396Z,29.07
2024-01-24T06:21:02.289Z,29.18
2024-01-24T06:23:30.515Z,29.34
2024-01-24T06:25:58.758Z,29.74
2024-01-24T06:28:26.983Z,29.72
2024-01-24T06:30:55.229Z,29.57
2024-01-24T06:33:25.541Z,29.78
2024-01-24T06:35:53.924Z,29.60
2024-01-24T06:38:23.528Z,29.68
2024-01-24T06:40:51.723Z,29.52
2024-01-24T06:43:20.077Z,29.82
2024-01-24T06:45:48.229Z,29.75
2024-01-24T06:48:16.561Z,29.56
2024-01-24T06:50:44.930Z,29.71
2024-01-24T06:53:15.889Z,29.54
2024-01-24T06:55:46.188Z,29.79
2024-01-24T06:58:14.323Z,29.49
2024-01-24T07:00:43.233Z,29.73
2024-01-24T07:03:11.778Z,29.68
2024-01-24T07:05:39.984Z,29.76
2024-01-24T07:08:08.482Z,29.59
2024-01-24T07:10:36.592Z,29.53
2024-01-24T07:13:06.466Z,29.87
2024-01-24T07:15:34.738Z,29.63
2024-01-24T07:18:03.201Z,29.40
2024-01-24T07:20:31.495Z,29.85
2024-01-24T07:22:59.619Z,29.41
2024-01-24T07:25:27.721Z,29.56
2024-01-24T07:27:55.940Z,29.31
2024-01-24T07:30:26.228Z,29.38
2024-01-24T07:32:54.536Z,29.61
2024-01-24T07:35:22.763Z,29.49
2024-01-24T07:37:50.885Z,29.52
2024-01-24T07:40:19.464Z,29.39
2024-01-24T07:42:47.730Z,29.28
2024-01-24T07:45:16.375Z,29.20
2024-01-24T07:47:46.443Z,29.27
2024-01-24T07:50:14.739Z,29.26
2024-01-24T07:52:43.542Z,29.06
2024-01-24T07:55:13.249Z,29.09
2024-01-24T07:57:42.050Z,29.48
2024-01-24T08:00:17.286Z,29.80
2024-01-24T08:02:49.045Z,29.78
2024-01-24T08:05:19.898Z,29.70
2024-01-24T08:07:48.114Z,29.74
2024-01-24T08:10:16.935Z,29.95
2024-01-24T08:12:45.311Z,29.47
2024-01-24T08:15:13.674Z,29.54
2024-01-24T08:17:42.059Z,29.68
2024-01-24T08:20:12.873Z,29.46
2024-01-24T08:22:41.095Z,29.52
2024-01-24T08:25:10.376Z,29.66
2024-01-24T08:27:38.950Z,29.53
2024-01-24T08:30:08.676Z,29.59
2024-01-24T08:32:41.726Z,29.45
2024-01-24T08:35:20.690Z,29.34
2024-01-24T08:37:48.861Z,29.49
2024-01-24T08:40:18.355Z,29.17
2024-01-24T08:42:47.161Z,29.45
2024-01-24T08:45:15.475Z,29.54
2024-01-24T08:47:45.055Z,29.49
2024-01-24T08:50:13.699Z,29.49
2024-01-24T08:52:43.237Z,29.12
2024-01-24T08:55:14.837Z,29.28
2024-01-24T08:57:43.892Z,29.02
2024-01-24T09:00:12.958Z,29.37
2024-01-24T09:02:41.489Z,29.37
2024-01-24T09:05:48.354Z,29.04
2024-01-24T09:08:19.872Z,29.24
2024-01-24T09:10:48.011Z,29.30
2024-01-24T09:13:21.889Z,28.92
2024-01-24T09:15:50.297Z,28.80
2024-01-24T09:18:19.190Z,29.11
2024-01-24T09:20:47.891Z,28.97
2024-01-24T09:23:16.526Z,29.15
2024-01-24T09:25:46.270Z,28.85
2024-01-24T09:28:14.520Z,28.92
2024-01-24T09:30:42.773Z,29.09
2024-01-24T09:33:11.230Z,28.88
2024-01-24T09:35:39.603Z,29.08
2024-01-24T09:38:07.866Z,29.46
2024-01-24T09:40:36.082Z,29.42
2024-01-24T09:43:06.388Z,29.34
2024-01-24T09:45:34.724Z,29.29
2024-01-24T09:48:03.079Z,29.11
2024-01-24T09:50:31.330Z,29.39
2024-01-24T09:52:59.857Z,29.55
2024-01-24T09:55:28.930Z,29.80
2024-01-24T09:57:57.347Z,30.14
2024-01-24T10:00:27.100Z,30.24
2024-01-24T10:02:55.324Z,30.19
2024-01-24T10:05:25.895Z,30.46
2024-01-24T10:07:54.240Z,30.56
2024-01-24T10:10:22.447Z,30.45
2024-01-24T10:12:50.902Z,30.44
2024-01-24T10:15:19.430Z,30.38
2024-01-24T10:17:50.349Z,30.32
2024-01-24T10:20:43.940Z,30.15
2024-01-24T10:23:21.348Z,30.50
2024-01-24T10:25:49.914Z,30.74
2024-01-24T10:28:19.007Z,30.61
2024-01-24T10:30:48.644Z,30.60
2024-01-24T10:33:19.629Z,30.56
2024-01-24T10:35:48.595Z,30.40
2024-01-24T10:38:21.423Z,30.51
2024-01-24T10:40:49.713Z,30.44
2024-01-24T10:43:18.503Z,30.42
2024-01-24T10:45:47.159Z,30.50
2024-01-24T10:48:15.552Z,30.27
2024-01-24T10:50:45.534Z,30.40
2024-01-24T10:53:14.277Z,30.46
2024-01-24T10:55:42.822Z,30.61
2024-01-24T10:58:11.819Z,30.27
2024-01-24T11:00:40.664Z,30.23
2024-01-24T11:03:09.032Z,30.15
2024-01-24T11:05:42.167Z,30.36
2024-01-24T11:08:13.808Z,30.66
2024-01-24T11:10:42.782Z,30.62
2024-01-24T11:13:11.265Z,30.32
2024-01-24T11:15:41.790Z,30.36
2024-01-24T11:18:26.151Z,30.77
2024-01-24T11:20:55.029Z,30.46
2024-01-24T11:23:44.755Z,30.60
2024-01-24T11:26:13.424Z,30.44
2024-01-24T11:28:41.574Z,30.52
2024-01-24T11:31:10.352Z,30.56
2024-01-24T11:33:38.765Z,30.71
2024-01-24T11:36:08.735Z,30.81
2024-01-24T11:38:41.318Z,30.40
2024-01-24T11:41:24.003Z,30.58
2024-01-24T11:43:52.543Z,30.71
2024-01-24T11:46:21.145Z,30.45
2024-01-24T11:48:49.474Z,30.45
2024-01-24T11:51:18.995Z,30.40
2024-01-24T11:53:48.585Z,30.43
2024-01-24T11:56:16.930Z,30.44
2024-01-24T11:58:45.272Z,30.53
2024-01-24T12:01:14.052Z,30.47
2024-01-24T12:03:48.059Z,30.25
2024-01-24T12:06:16.366Z,30.23
2024-01-24T12:08:47.979Z,30.31
2024-01-24T12:11:19.896Z,30.12
2024-01-24T12:13:48.198Z,30.20
2024-01-24T12:16:16.490Z,30.29
2024-01-24T12:18:45.224Z,30.18
2024-01-24T12:21:14.008Z,30.19
2024-01-24T12:23:49.101Z,30.39
2024-01-24T12:26:17.672Z,30.11
2024-01-24T12:28:49.371Z,29.99
2024-01-24T12:31:18.099Z,30.08
2024-01-24T12:33:47.037Z,30.04
2024-01-24T12:36:15.275Z,29.99
2024-01-24T12:38:43.602Z,29.96
2024-01-24T12:41:11.939Z,30.10
2024-01-24T12:43:40.199Z,30.21
2024-01-24T12:46:10.773Z,30.29
2024-01-24T12:48:39.738Z,29.88
2024-01-24T12:52:04.366Z,29.88
2024-01-24T12:54:32.716Z,30.56
2024-01-24T12:57:00.850Z,30.57
2024-01-24T12:59:30.178Z,30.56
2024-01-24T13:02:00.839Z,30.93
2024-01-24T13:04:29.886Z,30.77
2024-01-24T13:06:58.253Z,31.25
2024-01-24T13:09:28.034Z,31.13
2024-01-24T13:11:57.415Z,31.30
2024-01-24T13:14:25.947Z,31.59
2024-01-24T13:16:54.036Z,31.65
2024-01-24T13:19:25.543Z,31.63
2024-01-24T13:21:53.919Z,31.56
2024-01-24T13:24:22.736Z,31.52
2024-01-24T13:26:51.096Z,31.75
2024-01-24T13:29:19.694Z,31.79
2024-01-24T13:31:48.991Z,31.95
2024-01-24T13:34:18.011Z,31.64
2024-01-24T13:37:06.166Z,31.85
2024-01-24T13:39:35.760Z,32.17
2024-01-24T13:42:05.440Z,31.67
2024-01-24T13:44:34.355Z,32.09
2024-01-24T13:47:02.594Z,31.84
2024-01-24T13:49:30.841Z,31.83
2024-01-24T13:52:00.567Z,31.78
2024-01-24T13:54:30.087Z,31.93
2024-01-24T13:56:58.484Z,32.02
2024-01-24T13:59:26.883Z,32.14
2024-01-24T14:01:59.983Z,32.26
2024-01-24T14:04:29.518Z,32.33
2024-01-24T14:07:16.639Z,32.34
2024-01-24T14:09:46.287Z,32.42
2024-01-24T14:12:14.572Z,32.50
2024-01-24T14:14:43.751Z,32.64
2024-01-24T14:17:13.441Z,32.44
2024-01-24T14:19:41.719Z,32.56
2024-01-24T14:22:10.077Z,32.45
2024-01-24T14:24:38.307Z,32.67
2024-01-24T14:27:08.088Z,33.05
2024-01-24T14:29:37.261Z,32.97
2024-01-24T14:32:07.458Z,33.24
2024-01-24T14:34:35.755Z,33.00
2024-01-24T14:37:10.222Z,33.30
2024-01-24T14:39:40.762Z,33.23
2024-01-24T14:42:10.834Z,33.40
2024-01-24T14:44:39.050Z,33.11
2024-01-24T14:47:07.440Z,33.72
2024-01-24T14:49:35.633Z,33.89
2024-01-24T14:52:04.864Z,33.91
2024-01-24T14:54:33.364Z,33.85
2024-01-24T14:57:01.724Z,34.09
2024-01-24T14:59:31.541Z,34.34
2024-01-24T15:01:59.722Z,34.70
2024-01-24T15:04:29.014Z,34.68
2024-01-24T15:06:57.311Z,34.61
2024-01-24T15:09:25.671Z,34.85
2024-01-24T15:11:54.256Z,34.63
2024-01-24T15:14:22.546Z,35.82
2024-01-24T15:16:52.737Z,36.00
2024-01-24T15:19:20.897Z,35.53
2024-01-24T15:21:50.008Z,35.29
2024-01-24T15:24:19.807Z,35.24
2024-01-24T15:26:48.032Z,35.04
2024-01-24T15:29:16.385Z,34.82
2024-01-24T15:31:44.686Z,34.91
2024-01-24T15:34:16.105Z,34.56
2024-01-24T15:36:45.257Z,34.62
2024-01-24T15:39:15.276Z,34.66
2024-01-24T15:41:43.518Z,34.33
2024-01-24T15:44:12.021Z,34.51
2024-01-24T15:46:40.236Z,34.49
2024-01-24T15:49:11.678Z,34.61
2024-01-24T15:51:41.471Z,34.45
2024-01-24T15:54:10.509Z,34.52
2024-01-24T15:56:38.706Z,34.37
2024-01-24T15:59:06.943Z,34.88
2024-01-24T16:01:35.353Z,34.92
2024-01-24T16:04:05.092Z,34.45
2024-01-24T16:07:26.095Z,34.70
2024-01-24T16:09:55.921Z,34.71
2024-01-24T16:12:24.192Z,34.48
2024-01-24T16:14:52.418Z,34.30
2024-01-24T16:17:20.661Z,34.29
2024-01-24T16:19:49.333Z,34.32
2024-01-24T16:23:13.222Z,34.43
2024-01-24T16:25:42.773Z,33.89
2024-01-24T16:28:12.777Z,34.12
2024-01-24T16:30:44.385Z,34.11
2024-01-24T16:33:12.915Z,33.90
2024-01-24T16:35:41.143Z,33.81
2024-01-24T16:38:09.684Z,34.92
2024-01-24T16:40:37.828Z,34.21
2024-01-24T16:43:07.646Z,34.56
2024-01-24T16:45:35.953Z,34.94
2024-01-24T16:48:04.191Z,35.03
2024-01-24T16:50:32.344Z,34.98
2024-01-24T16:53:00.504Z,34.78
2024-01-24T16:55:29.232Z,35.11
2024-01-24T16:57:57.935Z,35.13
2024-01-24T17:00:27.665Z,35.15
2024-01-24T17:02:58.486Z,34.98
2024-01-24T17:05:27.384Z,35.31
2024-01-24T17:07:55.582Z,35.47
2024-01-24T17:10:23.833Z,35.37
2024-01-24T17:12:52.070Z,35.23
2024-01-24T17:15:20.429Z,35.48
2024-01-24T17:17:49.969Z,35.39
2024-01-24T17:20:18.643Z,35.56
2024-01-24T17:23:16.067Z,35.82
2024-01-24T17:25:44.246Z,35.66
2024-01-24T17:28:12.418Z,35.59
2024-01-24T17:30:41.270Z,35.49
2024-01-24T17:33:10.980Z,35.95
2024-01-24T17:35:39.757Z,35.31
2024-01-24T17:38:08.039Z,35.50
2024-01-24T17:40:36.201Z,36.04
2024-01-24T17:43:04.517Z,35.52
2024-01-24T17:45:32.882Z,35.73
2024-01-24T17:48:01.123Z,35.38
2024-01-24T17:50:30.760Z,35.91
2024-01-24T17:53:35.954Z,35.80
2024-01-24T17:56:04.364Z,35.75
2024-01-24T17:58:34.325Z,35.61
2024-01-24T18:01:03.902Z,35.34
2024-01-24T18:03:32.273Z,35.51
2024-01-24T18:06:01.957Z,35.59
2024-01-24T18:08:30.070Z,35.33
2024-01-24T18:10:59.768Z,35.41
2024-01-24T18:13:29.067Z,35.53
2024-01-24T18:15:57.942Z,35.15
2024-01-24T18:18:27.358Z,35.32
2024-01-24T18:20:56.150Z,35.53
2024-01-24T18:23:29.748Z,35.49
2024-01-24T18:25:58.235Z,35.02
2024-01-24T18:28:26.455Z,35.08
2024-01-24T18:30:54.576Z,35.06
2024-01-24T18:33:23.567Z,35.09
2024-01-24T18:35:52.767Z,34.91
2024-01-24T18:38:20.910Z,35.51
2024-01-24T18:40:50.470Z,35.10
2024-01-24T18:43:18.964Z,34.70
2024-01-24T18:45:47.324Z,35.05
2024-01-24T18:48:19.763Z,35.20
2024-01-24T18:50:48.364Z,35.03
2024-01-24T18:53:16.742Z,34.81
2024-01-24T18:55:45.003Z,34.60
2024-01-24T18:58:14.995Z,34.72
2024-01-24T19:00:43.379Z,34.46
2024-01-24T19:03:12.361Z,34.41
2024-01-24T19:05:40.924Z,34.58
2024-01-24T19:08:11.973Z,34.62
2024-01-24T19:10:40.446Z,34.28
2024-01-24T19:13:08.640Z,34.37
2024-01-24T19:15:38.198Z,34.18
2024-01-24T19:18:14.022Z,33.84
2024-01-24T19:20:45.414Z,34.13
2024-01-24T19:23:21.586Z,34.00
2024-01-24T19:25:51.055Z,34.13
2024-01-24T19:28:23.740Z,33.83
2024-01-24T19:30:53.557Z,34.07
2024-01-24T19:33:21.805Z,33.78
2024-01-24T19:35:50.207Z,33.87
2024-01-24T19:38:19.715Z,33.73
2024-01-24T19:40:47.912Z,33.47
2024-01-24T19:43:16.035Z,33.36
2024-01-24T19:45:44.591Z,33.42
2024-01-24T19:48:14.955Z,33.15
2024-01-24T19:50:45.042Z,33.49
2024-01-24T19:53:27.545Z,33.13
2024-01-24T19:56:02.447Z,33.17
2024-01-24T19:58:31.968Z,33.15
2024-01-24T20:01:05.181Z,33.33
2024-01-24T20:03:35.156Z,33.37
2024-01-24T20:06:03.908Z,33.16
2024-01-24T20:08:32.037Z,33.01
2024-01-24T20:11:00.300Z,33.32
2024-01-24T20:13:29.140Z,33.41
2024-01-24T20:15:58.853Z,33.31
2024-01-24T20:18:27.547Z,33.54
2024-01-24T20:20:57.190Z,33.36
2024-01-24T20:23:27.824Z,33.17
2024-01-24T20:25:57.555Z,33.58
2024-01-24T20:28:26.440Z,33.43
2024-01-24T20:30:54.674Z,33.54
2024-01-24T20:33:23.223Z,33.39
2024-01-24T20:35:54.075Z,33.33
2024-01-24T20:38:24.490Z,33.39
2024-01-24T20:40:52.598Z,33.09
2024-01-24T20:43:20.835Z,33.26
2024-01-24T20:45:49.483Z,33.26
2024-01-24T20:48:18.367Z,33.18
2024-01-24T20:50:47.117Z,32.96
2024-01-24T20:53:18.913Z,33.15
2024-01-24T20:55:48.598Z,32.89
2024-01-24T20:58:16.781Z,32.94
2024-01-24T21:00:45.175Z,33.14
2024-01-24T21:03:13.572Z,33.05
2024-01-24T21:05:41.954Z,33.01
2024-01-24T21:08:10.387Z,32.95
2024-01-24T21:10:42.236Z,32.96
2024-01-24T21:13:18.547Z,32.66
2024-01-24T21:15:46.761Z,32.73
2024-01-24T21:18:15.515Z,32.78
2024-01-24T21:20:43.801Z,32.77
2024-01-24T21:23:12.518Z,32.60
2024-01-24T21:25:40.926Z,32.53
2024-01-24T21:28:09.753Z,32.46
2024-01-24T21:30:39.466Z,32.24
2024-01-24T21:33:07.639Z,32.35
2024-01-24T21:35:36.039Z,32.47
2024-01-24T21:38:04.345Z,32.10
2024-01-24T21:40:32.520Z,32.13
2024-01-24T21:43:00.745Z,32.35
2024-01-24T21:45:28.896Z,32.43
2024-01-24T21:47:58.530Z,32.27
2024-01-24T21:50:26.807Z,32.15
2024-01-24T21:52:55.014Z,31.93
2024-01-24T21:55:23.233Z,31.94
2024-01-24T21:57:53.539Z,32.21
2024-01-24T22:00:21.987Z,32.27
2024-01-24T22:02:50.259Z,32.13
2024-01-24T22:05:20.409Z,31.93
2024-01-24T22:07:50.853Z,31.86
2024-01-24T22:10:19.421Z,31.90
2024-01-24T22:12:47.724Z,32.19
2024-01-24T22:15:16.073Z,31.82
2024-01-24T22:17:44.334Z,32.20
2024-01-24T22:20:13.521Z,31.76
2024-01-24T22:25:16.264Z,32.14
2024-01-24T22:27:44.525Z,31.77
2024-01-24T22:30:14.069Z,31.99
2024-01-24T22:32:42.274Z,31.78
2024-01-24T22:35:11.014Z,32.16
2024-01-24T22:37:39.571Z,31.84
2024-01-24T22:40:10.488Z,31.78
2024-01-24T22:42:38.705Z,32.01
2024-01-24T22:45:07.613Z,32.16
2024-01-24T22:47:35.744Z,32.12
2024-01-24T22:50:04.935Z,31.81
2024-01-24T22:52:33.389Z,32.12
2024-01-24T22:55:01.615Z,32.10
2024-01-24T22:57:31.222Z,32.05
2024-01-24T22:59:59.433Z,32.36
2024-01-24T23:02:27.571Z,32.02
2024-01-24T23:04:56.930Z,32.35
2024-01-24T23:07:25.098Z,32.06
2024-01-24T23:09:53.702Z,32.20
2024-01-24T23:12:21.999Z,32.12
2024-01-24T23:14:51.592Z,32.10
2024-01-24T23:17:19.644Z,32.15
2024-01-24T23:19:48.048Z,32.13
2024-01-24T23:22:16.311Z,31.85
2024-01-24T23:24:44.523Z,32.04
2024-01-24T23:27:12.774Z,31.84
2024-01-24T23:29:40.946Z,31.96
2024-01-24T23:32:10.487Z,32.01
2024-01-24T23:34:38.823Z,31.92
2024-01-24T23:37:07.126Z,31.83
2024-01-24T23:39:35.386Z,31.67
2024-01-24T23:42:03.619Z,31.67
2024-01-24T23:44:31.789Z,31.75
2024-01-24T23:46:59.913Z,31.83
2024-01-24T23:49:29.777Z,31.69
2024-01-24T23:51:58.208Z,31.57
2024-01-24T23:54:26.460Z,31.77
2024-01-24T23:56:54.641Z,31.44
2024-01-24T23:59:22.820Z,31.63
